Terminal Aerodrome Forecast
Issued by NWS

Home | Current Version | Previous Version | Text Only | Print | Product List | Glossary On
Versions: 1 2 3 4 5 6 7 8 9 10 11 12 13 14 15 16 17 18 19 20 21 22 23 24
972
FTUS41 KGYX 051246 AAC
TAFHIE
TAF AMD
KHIE 051246Z 0513/0612 05006KT 1SM -SN BR BKN024 OVC070
      TEMPO 0513/0514 2SM -SN BR OVC035
     FM051400 VRB03KT 1 1/2SM -SN OVC012
     FM052200 00000KT P6SM OVC025 PROB30 0600/0603 P6SM -SN OVC015
     FM060300 27003KT P6SM BKN050=

USA.gov is the U.S. government's official web portal to all federal, state and local government web resources and services.